Agua de Oro, Argentina
Current Conditions -  °F | °C
As of 12:00 AM on Saturday 20 Dec 2014 (Local Time) from SACO Reporting Station
Clear Clear  
Wind Chill: 24°   Ceiling: Unl
Heat Index: 24°   Visibility: 6mi
Dew Point: 18°   Wind: 8mph
Humidity: 69%   Direction: 360°N
Pressure: 29.62"   Gusts: NA
Location:  31.07°S, 64.3°W
Report Text: SACO 200300Z 36007KT CAVOK 24/18 Q1003
Loading
Personal Weather Stations






























Interactive Weather Map New forecast layout! Learn more

10-Day Weather Forecast

Advertisements
Track Severe Weather on mobile